• Join FlightAware (Why Join?)
  • Login
  • US Flag 
03:58AM EDT


 

Airport Tracker/Info


-or-


 

Live Flight TrackerFlight Track Log ✈ VH-FGT ✈ 05-May-2013 ✈ YTNK / TCA - YBAS / ASP

Flight Track Log - Related Links

Times and Time Zones

All times are in EDT time to prevent confusion due to time zone crossing. See the VH-FGT flight status page for this flight to view local times or setup timezone preferences in your user account.

Time Position Orientation Groundspeed Altitude Reporting Facility
EDT Latitude Longitude Course Direction KTS MPH feet Rate Location/Type
07:31AM -19.8510 134.1662 360° North 15,000  Level Aus ATC (Calculated)
07:31AM -19.8510 134.1662 184° South 15,000  Level Aus ATC (Calculated)
07:32AM -19.9050 134.1623 184° South 15,000  Level Aus ATC (Calculated)
07:34AM -19.9949 134.1559 184° South  Level FlightAware Approximate
07:35AM -20.0569 134.1514 184° South  Level FlightAware Approximate
07:35AM -20.1213 134.1468 North 15,000  Level Aus ATC (Calculated)
07:36AM -20.1189 134.1470 184° South  Level FlightAware Approximate
07:37AM -20.2112 134.1403 184° South  Level FlightAware Approximate
07:38AM -20.2732 134.1358 184° South  Level FlightAware Approximate
07:39AM -20.3352 134.1314 184° South  Level FlightAware Approximate
07:40AM -20.3972 134.1269 184° South  Level FlightAware Approximate
07:41AM -20.4592 134.1224 184° South  Level FlightAware Approximate
07:41AM -20.4456 134.1234 360° North 15,000  Level Aus ATC (Calculated)
07:41AM -20.4456 134.1234 184° South 15,000  Level Aus ATC (Calculated)
07:43AM -20.5366 134.1168 184° South  Level FlightAware Approximate
07:43AM -20.5537 134.1156 184° South 15,000  Level Aus ATC (Calculated)
07:44AM -20.6157 134.1111 184° South  Level FlightAware Approximate
07:44AM -20.6078 134.1117 184° South 15,000  Level Aus ATC (Calculated)
07:46AM -20.7276 134.1030 184° South  Level FlightAware Approximate
07:47AM -20.7896 134.0985 184° South  Level FlightAware Approximate
07:48AM -20.8517 134.0940 184° South  Level FlightAware Approximate
07:49AM -20.9137 134.0895 184° South  Level FlightAware Approximate
07:50AM -20.9757 134.0850 184° South  Level FlightAware Approximate
07:51AM -21.0376 134.0805 184° South  Level FlightAware Approximate
07:52AM -21.0996 134.0759 184° South  Level FlightAware Approximate
07:53AM -21.1616 134.0714 184° South  Level FlightAware Approximate
07:54AM -21.2236 134.0669 184° South  Level FlightAware Approximate
07:54AM -21.2564 134.0645 184° South 15,000  Level Aus ATC (Calculated)
07:56AM -21.3680 134.0563 184° South  Level FlightAware Approximate
07:56AM -21.3645 134.0566 360° North 15,000  Level Aus ATC (Calculated)
07:56AM -21.3645 134.0566 184° South 15,000  Level Aus ATC (Calculated)
07:57AM -21.4538 134.0501 North 15,000  Level Aus ATC (Calculated)
07:58AM -21.3918 134.0546 North  Level FlightAware Approximate
07:59AM -21.3298 134.0591 North  Level FlightAware Approximate
07:59AM -21.5431 134.0436 184° South 15,000  Level Aus ATC (Calculated)
08:00AM -21.6325 134.0371 184° South 15,000  Level Aus ATC (Calculated)
08:00AM -21.7218 134.0305 North 15,000  Level Aus ATC (Calculated)
08:02AM -21.6402 134.0365 North  Level FlightAware Approximate
08:03AM -21.5781 134.0410 North  Level FlightAware Approximate
08:04AM -21.6402 134.0372 184° South  Level Estimated
08:05AM -21.7022 134.0327 184° South  Level FlightAware Approximate
08:06AM -21.7642 134.0281 184° South  Level FlightAware Approximate
08:07AM -21.8262 134.0235 184° South  Level FlightAware Approximate
08:08AM -21.8882 134.0189 184° South  Level FlightAware Approximate
08:09AM -21.9502 134.0143 184° South  Level FlightAware Approximate
08:10AM -22.0122 134.0098 184° South  Level FlightAware Approximate
08:10AM -22.3470 133.9846 184° South 15,000  Level Aus ATC (Calculated)
08:11AM -22.4363 133.9780 184° South 15,000  Level Aus ATC (Calculated)
08:12AM -22.4524 133.9769 184° South  Level FlightAware Approximate
08:13AM -22.5024 133.9732 184° South  Level FlightAware Approximate
08:14AM -22.5644 133.9686 184° South  Level FlightAware Approximate
08:15AM -22.6264 133.9640 184° South  Level FlightAware Approximate
08:16AM -22.6884 133.9594 184° South  Level FlightAware Approximate
08:17AM -22.7504 133.9548 184° South  Level FlightAware Approximate
08:17AM -22.8560 133.9470 North 600  Level Aus ATC (Calculated)
08:18AM -22.8124 133.9502 184° South  Level FlightAware Approximate
08:19AM -22.7795 133.9526 North  Level FlightAware Approximate
08:20AM -22.8415 133.9481 184° South  Level FlightAware Approximate
08:20AM -22.9809 133.9379 360° North 600  Level Aus ATC (Calculated)
08:20AM -22.9809 133.9379 184° South 600  Level Aus ATC (Calculated)
08:21AM -23.1058 133.9288 North 600  Level Aus ATC (Calculated)
08:22AM -22.8651 133.9464 North  Level FlightAware Approximate
08:22AM -23.1682 133.9242 331° Northwest 600  Level Aus ATC (Calculated)
08:23AM -23.1682 133.9242 151° Southeast 600  Level Aus ATC (Calculated)
08:23AM -23.1682 133.9242 North 600  Level Aus ATC (Calculated)
08:25AM -23.0483 133.9330 North  Level FlightAware Approximate
08:26AM -23.3504 133.9180 184° South  Level Estimated
08:27AM -23.4123 133.9124 185° South  Level FlightAware Approximate
08:28AM -23.4743 133.9068 185° South  Level FlightAware Approximate
08:29AM -23.5362 133.9013 185° South  Level FlightAware Approximate
08:29AM -23.6054 133.8920 184° South 600  Level Aus ATC (Calculated)
08:31AM -23.6942 133.8855 184° South  Level FlightAware Approximate
08:32AM -23.7562 133.8809 184° South  Level FlightAware Approximate
08:33AM -23.8067 133.9022 184° South  Level Estimated
08:34AM -23.8067 133.9022 302° West  Level Estimated
08:35AM -23.8067 133.9022 302° West  Level Estimated
08:36AM -23.8067 133.9022 302° West  Level Estimated
08:37AM -23.8067 133.9022 302° West  Level Estimated
08:38AM -23.8067 133.9022 302° West  Level Estimated
08:39AM -23.8067 133.9022 302° West  Level Estimated
08:40AM -23.8067 133.9022 302° West  Level Estimated
08:41AM -23.8067 133.9022 302° West  Level Estimated
08:42AM -23.8067 133.9022 302° West  Level Estimated
08:43AM -23.8067 133.9022 184° South  Level Estimated
08:44AM -23.8067 133.9022 184° South  Level Estimated
08:45AM -23.8067 133.9022 184° South  Level Estimated
08:46AM -23.8067 133.9022 184° South  Level Estimated
08:47AM -23.8067 133.9022 184° South  Level Estimated